Time;durP1;ratioP1;P1;durP2;ratioP2;P2;SDS_P1;SDS_P2;PMS_P1;PMS_P2;Temp;Humidity;BMP_temperature;BMP_pressure;BME280_temperature;BME280_humidity;BME280_pressure;Samples;Min_cycle;Max_cycle;Signal;HPM_P1;HPM_P2
2022/01/29 00:11:30;;;;;;;6.85;4.50;;;;;;;20.64;44.08;101242.63;20384173;28;99324;-65
2022/01/29 00:22:16;;;;;;;4.97;4.33;;;;;;;20.63;43.86;101250.63;20443572;28;99907;-65
2022/01/29 00:32:41;;;;;;;6.93;4.40;;;;;;;20.63;43.98;101258.53;20454166;28;97988;-65
2022/01/29 01:16:27;;;;;;;4.65;3.45;;;;;;;20.47;43.65;101275.22;20386376;28;98243;-65
2022/01/29 01:48:26;;;;;;;3.45;2.80;;;;;;;20.34;43.83;101305.84;20468183;28;100380;-65
2022/01/29 01:59:07;;;;;;;3.47;2.90;;;;;;;20.29;43.60;101290.31;20415570;28;98091;-65
2022/01/29 02:52:59;;;;;;;2.42;2.17;;;;;;;20.17;43.68;101304.19;20453789;28;97675;-65
2022/01/29 03:03:19;;;;;;;2.88;2.10;;;;;;;20.17;43.49;101306.00;20448265;28;100522;-65
2022/01/29 03:13:48;;;;;;;2.63;1.90;;;;;;;20.17;43.23;101319.16;20456925;28;99709;-65
2022/01/29 03:24:20;;;;;;;4.28;1.95;;;;;;;20.12;43.38;101338.66;20464368;28;101647;-64
2022/01/29 03:34:37;;;;;;;2.90;1.80;;;;;;;20.14;43.23;101328.03;20410002;28;97655;-65
2022/01/29 03:45:22;;;;;;;2.75;2.03;;;;;;;20.12;43.11;101341.28;20417900;28;102725;-65
2022/01/29 03:55:24;;;;;;;2.08;1.75;;;;;;;20.11;43.44;101352.72;20409258;28;99145;-65
2022/01/29 04:16:32;;;;;;;2.40;1.80;;;;;;;20.14;43.87;101365.72;20438220;28;98572;-64
2022/01/29 04:26:58;;;;;;;10.02;1.55;;;;;;;20.15;43.37;101362.16;20470545;28;102833;-65
2022/01/29 04:36:58;;;;;;;2.30;1.50;;;;;;;20.14;43.59;101356.97;20454611;28;97678;-65
2022/01/29 04:47:24;;;;;;;1.30;1.20;;;;;;;20.15;43.81;101356.03;20469700;28;99098;-66
2022/01/29 05:08:55;;;;;;;1.95;1.20;;;;;;;20.18;43.78;101381.28;20402725;28;98718;-66
2022/01/29 05:40:59;;;;;;;1.15;1.00;;;;;;;20.43;43.00;101409.66;20471346;28;98076;-65
2022/01/29 06:02:16;;;;;;;1.98;1.10;;;;;;;20.56;43.03;101420.34;20475786;28;98370;-65
2022/01/29 06:12:30;;;;;;;1.23;1.13;;;;;;;20.62;42.94;101430.50;20451831;28;98226;-65
2022/01/29 06:22:57;;;;;;;1.63;1.10;;;;;;;20.68;42.90;101429.28;20462681;28;99882;-65
2022/01/29 06:44:03;;;;;;;1.40;1.10;;;;;;;20.78;42.70;101428.69;20444550;28;101190;-64
2022/01/29 06:54:30;;;;;;;4.22;1.00;;;;;;;20.91;43.69;101422.69;20463102;28;98985;-64
2022/01/29 07:04:30;;;;;;;3.75;1.08;;;;;;;21.02;43.64;101419.41;20447898;28;101605;-65
2022/01/29 07:15:22;;;;;;;7.25;1.00;;;;;;;21.10;44.01;101425.94;20461171;28;102494;-64
2022/01/29 07:25:31;;;;;;;3.40;1.00;;;;;;;21.20;42.83;101441.16;20469403;28;98575;-63
2022/01/29 07:36:26;;;;;;;1.20;0.80;;;;;;;21.26;43.29;101446.91;20462124;28;98144;-63
2022/01/29 07:58:08;;;;;;;3.95;1.50;;;;;;;21.43;43.28;101447.66;20462778;28;98294;-63
2022/01/29 08:08:20;;;;;;;4.38;2.20;;;;;;;21.49;43.61;101442.00;20473101;28;99103;-63
2022/01/29 08:30:13;;;;;;;7.95;4.72;;;;;;;21.49;42.30;101443.81;20442246;28;97569;-62
2022/01/29 08:51:26;;;;;;;12.98;3.30;;;;;;;21.17;36.38;101451.91;20431026;28;100891;-62
2022/01/29 09:02:17;;;;;;;10.73;4.18;;;;;;;21.24;38.41;101455.84;20480632;28;97885;-62
2022/01/29 09:12:50;;;;;;;11.88;8.10;;;;;;;21.29;38.66;101477.50;20471466;28;98048;-63
2022/01/29 09:23:06;;;;;;;16.77;7.10;;;;;;;21.35;39.16;101474.47;20483046;28;97571;-63
2022/01/29 09:33:12;;;;;;;10.32;5.63;;;;;;;21.39;39.17;101456.69;20480378;28;98817;-63
2022/01/29 09:54:27;;;;;;;9.88;6.10;;;;;;;21.43;39.52;101437.09;20461363;28;100313;-62
2022/01/29 10:26:29;;;;;;;7.18;5.30;;;;;;;21.38;39.34;101381.22;20488106;28;97990;-63
2022/01/29 10:47:17;;;;;;;7.07;4.70;;;;;;;21.31;38.99;101383.38;20491073;28;98875;-63
2022/01/29 11:30:17;;;;;;;7.13;4.78;;;;;;;21.25;39.23;101338.97;20472400;28;97823;-64
2022/01/29 12:24:46;;;;;;;9.07;5.68;;;;;;;21.21;38.86;101261.94;20473550;28;102021;-64
2022/01/29 12:34:56;;;;;;;30.83;6.68;;;;;;;21.18;38.47;101238.44;20466200;28;101486;-63
2022/01/29 12:45:03;;;;;;;13.27;5.72;;;;;;;21.18;38.84;101198.94;20460767;28;97884;-63
2022/01/29 12:55:26;;;;;;;16.00;5.78;;;;;;;21.23;39.06;101203.91;20469465;28;98903;-64
2022/01/29 13:06:02;;;;;;;15.88;6.18;;;;;;;21.30;40.70;101192.03;20431858;28;100754;-65
2022/01/29 13:38:22;;;;;;;15.82;8.38;;;;;;;21.51;43.34;101166.06;20464470;28;100535;-65
2022/01/29 13:48:49;;;;;;;16.23;8.63;;;;;;;21.50;42.72;101164.38;20439094;28;99581;-64
2022/01/29 14:10:10;;;;;;;16.27;7.15;;;;;;;21.46;42.65;101136.56;20468176;28;98339;-64
2022/01/29 14:20:42;;;;;;;11.75;6.80;;;;;;;21.44;42.16;101105.00;20435159;28;97942;-64
2022/01/29 14:31:23;;;;;;;13.02;6.50;;;;;;;21.42;42.20;101083.22;20464136;28;98035;-65
2022/01/29 14:41:38;;;;;;;8.27;5.20;;;;;;;21.41;42.37;101073.63;20470410;28;97998;-63
2022/01/29 14:52:03;;;;;;;10.10;5.35;;;;;;;21.39;42.30;101069.41;20472824;28;97714;-63
2022/01/29 15:02:57;;;;;;;10.55;5.25;;;;;;;21.34;42.22;101053.91;20487326;28;98407;-64
2022/01/29 15:13:25;;;;;;;9.65;4.60;;;;;;;21.32;42.48;101037.34;20486949;28;98207;-64
2022/01/29 15:23:49;;;;;;;9.20;4.95;;;;;;;21.31;42.06;101019.03;20480664;28;101109;-64
2022/01/29 15:33:55;;;;;;;14.05;5.25;;;;;;;21.31;42.13;100988.25;20476693;28;97789;-64
2022/01/29 15:44:30;;;;;;;14.50;4.63;;;;;;;20.93;37.76;100994.31;20481770;28;97690;-64
2022/01/29 15:55:17;;;;;;;8.85;4.47;;;;;;;21.09;39.53;100996.75;20424527;28;101684;-63
2022/01/29 16:05:23;;;;;;;8.63;3.85;;;;;;;21.19;40.15;100989.09;20437890;28;98237;-64
2022/01/29 16:15:56;;;;;;;7.95;3.70;;;;;;;21.25;40.73;100986.88;20476897;28;98412;-64
2022/01/29 16:36:53;;;;;;;9.20;4.07;;;;;;;21.33;41.14;100967.91;20444447;28;97856;-64
2022/01/29 17:08:57;;;;;;;9.93;5.03;;;;;;;21.35;41.40;100892.28;20415081;28;99456;-62
2022/01/29 17:30:29;;;;;;;9.88;5.40;;;;;;;21.48;40.87;100854.50;20417170;28;102013;-62
2022/01/29 17:40:47;;;;;;;9.55;6.47;;;;;;;21.47;39.98;100840.50;20403708;28;99854;-65
2022/01/29 17:50:48;;;;;;;12.00;6.97;;;;;;;21.46;39.99;100830.91;20353845;28;103232;-64
2022/01/29 18:01:07;;;;;;;7.43;5.60;;;;;;;21.47;40.23;100827.34;20356646;28;99057;-64
2022/01/29 18:44:14;;;;;;;9.35;5.22;;;;;;;21.35;40.60;100792.16;20472888;28;98716;-63
2022/01/29 18:54:20;;;;;;;12.25;4.93;;;;;;;21.36;40.53;100785.09;20460588;28;98978;-64
2022/01/29 19:04:21;;;;;;;11.27;5.00;;;;;;;21.36;40.50;100774.56;20448339;28;97499;-63
2022/01/29 19:14:22;;;;;;;8.80;4.97;;;;;;;21.32;40.81;100760.75;20548173;28;98589;-63
2022/01/29 19:24:30;;;;;;;9.13;4.82;;;;;;;21.30;40.94;100731.09;20479641;28;98626;-64
2022/01/29 19:34:35;;;;;;;9.45;5.55;;;;;;;21.26;41.23;100714.66;20553497;28;100199;-65
2022/01/29 19:45:01;;;;;;;12.10;7.07;;;;;;;21.25;41.69;100688.41;20528392;28;99560;-65
2022/01/29 19:55:04;;;;;;;12.70;6.82;;;;;;;21.24;42.24;100700.75;20499575;28;98196;-64
2022/01/29 20:05:12;;;;;;;13.83;7.50;;;;;;;21.21;42.43;100669.34;20527721;28;99766;-65
2022/01/29 20:15:20;;;;;;;11.85;5.07;;;;;;;21.19;41.17;100652.84;20470034;28;103192;-64
2022/01/29 20:25:21;;;;;;;9.07;5.20;;;;;;;21.15;41.00;100653.19;20507013;28;97820;-64
2022/01/29 20:35:30;;;;;;;12.05;5.70;;;;;;;21.15;41.87;100640.00;20506821;28;102445;-64
2022/01/29 20:45:37;;;;;;;11.68;5.60;;;;;;;21.13;41.72;100623.47;20522199;28;100934;-64
2022/01/29 20:55:41;;;;;;;8.85;5.05;;;;;;;21.09;41.88;100602.66;20514561;28;100213;-64
2022/01/29 21:05:53;;;;;;;9.27;5.32;;;;;;;21.06;42.29;100567.81;20511746;28;101880;-63
2022/01/29 21:15:54;;;;;;;7.50;4.90;;;;;;;21.01;42.04;100551.53;20540170;28;99714;-63
2022/01/29 21:26:10;;;;;;;7.13;4.38;;;;;;;20.95;42.27;100539.66;20526532;28;97790;-64
2022/01/29 21:36:15;;;;;;;8.55;4.88;;;;;;;20.90;42.25;100507.56;20527294;28;97963;-64
2022/01/29 21:46:39;;;;;;;8.85;4.35;;;;;;;20.91;42.33;100488.16;20494208;28;108414;-63
2022/01/29 21:56:49;;;;;;;9.70;4.65;;;;;;;20.87;42.34;100487.59;20489660;28;99738;-64
2022/01/29 22:06:56;;;;;;;5.80;4.18;;;;;;;20.85;42.81;100476.31;20534838;28;98425;-64
2022/01/29 22:16:56;;;;;;;6.60;3.65;;;;;;;20.85;43.23;100436.84;20501512;28;108288;-63
2022/01/29 22:26:56;;;;;;;9.35;4.18;;;;;;;20.81;42.74;100434.56;20500991;28;99177;-64
2022/01/29 22:36:57;;;;;;;5.97;3.92;;;;;;;20.77;42.71;100432.13;20480853;28;99571;-63
2022/01/29 22:47:04;;;;;;;5.50;3.90;;;;;;;20.73;43.17;100433.34;20473090;28;98759;-64
2022/01/29 22:57:19;;;;;;;6.45;3.55;;;;;;;20.72;43.33;100415.03;20493166;28;100815;-63
2022/01/29 23:07:20;;;;;;;5.53;3.60;;;;;;;20.68;43.31;100400.38;20500639;28;101046;-64
2022/01/29 23:17:33;;;;;;;7.07;3.80;;;;;;;20.64;43.59;100390.09;20532266;28;103167;-64
2022/01/29 23:27:50;;;;;;;6.10;3.73;;;;;;;20.62;43.64;100365.69;20518290;28;99100;-64
2022/01/29 23:37:57;;;;;;;4.70;3.38;;;;;;;20.58;43.60;100340.59;20543786;28;99651;-63
2022/01/29 23:58:17;;;;;;;4.68;3.42;;;;;;;20.57;43.81;100332.81;20538046;28;99862;-64
